Main page
METAR-TAF:

METAR-TAF

Airports :

Niamey, Niger

Diori Hamani International Airport

latitude: 13-29N, longitude: 002-10E, elevation: 223 m

Current weather observation

The report was made 1 hour and 0 minutes ago, at 18:00 UTC
Wind 4 kt from the East/Northeast
Temperature 29°C
Humidity 9%
Pressure 1012 hPa
Visibility: 4500 m
widespread dust

METAR: DRRN 191800Z 06004KT 4500 DU NSC 29/M07 Q1012 NOSIG

Time: 20:00 (19:00 UTC)

Forecast

The report was made 2 hours and 0 minutes ago, at 17:00 UTC
Forecast valid from 19 at 18 UTC to 20 at 24 UTC
Wind 6 kt from the East/Northeast
Visibility: 8000 m
Temporary
from 19 at 18 UTC to 19 at 20 UTC
Visibility: 4800 m
widespread dust
Temporary
from 20 at 06 UTC to 20 at 10 UTC
Wind 16 kt from the East
Visibility: 4000 m
Blowing dust

TAF: DRRN 191700Z 1918/2024 06006KT 8000 NSC TEMPO 1918/1920 4800 DU TEMPO 2006/2010 10016KT 4000 BLDU

Weather observations and forecasts of more than 4000 airports (METAR and TAF reports).

The available stations are represented by yellow and red dots on the map.

Hover mouse over dot to see the name of the station.

Then click to see weather observations and forecasts.

To change the map : click on the green buttons with a black cross to zoom in, on the green button with a dash to zoom out, or on the green arrows for adjacent maps.


METAR-TAF: